Blooming Grove, New York
Current Conditions -  °F | °C
As of 12:45 PM on Saturday 20 Dec 2014 (Local Time) from KSWF Reporting Station
Overcast Overcast  
Wind Chill: 23°   Ceiling: 3000
Heat Index: 28°   Visibility: 15mi
Dew Point: 21°   Wind: 5mph
Humidity: 74%   Direction: NA
Pressure: 30.26"   Gusts: NA
Location:  41.41°N, 74.19°W
Report Text: KSWF 201745Z VRB04KT 15SM OVC030 M02/M06 A3026
Loading
Personal Weather Stations






























Interactive Weather Map New forecast layout! Learn more

10-Day Weather Forecast

Advertisements
Track Severe Weather on mobile